sensor_id;sensor_type;location;lat;lon;timestamp;P1;durP1;ratioP1;P2;durP2;ratioP2
18659;SDS011;9459;50.254;19.014;2023-08-08T00:00:04;1.05;;;0.82;;
18659;SDS011;9459;50.254;19.014;2023-08-08T00:02:33;1.65;;;0.77;;
18659;SDS011;9459;50.254;19.014;2023-08-08T00:05:02;3.28;;;0.90;;
18659;SDS011;9459;50.254;19.014;2023-08-08T00:07:30;1.33;;;0.90;;
18659;SDS011;9459;50.254;19.014;2023-08-08T00:09:59;0.90;;;0.80;;
18659;SDS011;9459;50.254;19.014;2023-08-08T00:12:28;0.88;;;0.80;;
18659;SDS011;9459;50.254;19.014;2023-08-08T00:14:56;2.55;;;1.13;;
18659;SDS011;9459;50.254;19.014;2023-08-08T00:17:26;1.60;;;0.80;;
18659;SDS011;9459;50.254;19.014;2023-08-08T00:19:55;3.95;;;0.95;;
18659;SDS011;9459;50.254;19.014;2023-08-08T00:22:23;0.95;;;0.70;;
18659;SDS011;9459;50.254;19.014;2023-08-08T00:24:52;1.30;;;1.00;;
18659;SDS011;9459;50.254;19.014;2023-08-08T00:27:20;1.95;;;1.08;;
18659;SDS011;9459;50.254;19.014;2023-08-08T00:29:49;1.83;;;0.90;;
18659;SDS011;9459;50.254;19.014;2023-08-08T00:32:19;1.23;;;0.70;;
18659;SDS011;9459;50.254;19.014;2023-08-08T00:34:49;1.45;;;0.80;;
18659;SDS011;9459;50.254;19.014;2023-08-08T00:37:18;1.85;;;0.80;;
18659;SDS011;9459;50.254;19.014;2023-08-08T00:39:46;1.05;;;0.80;;
18659;SDS011;9459;50.254;19.014;2023-08-08T00:42:15;0.60;;;0.60;;
18659;SDS011;9459;50.254;19.014;2023-08-08T00:44:43;1.17;;;0.80;;
18659;SDS011;9459;50.254;19.014;2023-08-08T00:47:11;1.50;;;0.85;;
18659;SDS011;9459;50.254;19.014;2023-08-08T00:49:40;1.75;;;0.70;;
18659;SDS011;9459;50.254;19.014;2023-08-08T00:52:12;1.50;;;0.80;;
18659;SDS011;9459;50.254;19.014;2023-08-08T00:54:41;1.85;;;1.08;;
18659;SDS011;9459;50.254;19.014;2023-08-08T00:57:09;2.15;;;1.00;;
18659;SDS011;9459;50.254;19.014;2023-08-08T00:59:38;2.60;;;1.00;;
18659;SDS011;9459;50.254;19.014;2023-08-08T01:02:07;1.90;;;0.90;;
18659;SDS011;9459;50.254;19.014;2023-08-08T01:04:35;1.95;;;0.80;;
18659;SDS011;9459;50.254;19.014;2023-08-08T01:07:06;0.90;;;0.80;;
18659;SDS011;9459;50.254;19.014;2023-08-08T01:09:57;1.40;;;0.90;;
18659;SDS011;9459;50.254;19.014;2023-08-08T01:12:31;1.83;;;0.90;;
18659;SDS011;9459;50.254;19.014;2023-08-08T01:15:00;4.80;;;0.95;;
18659;SDS011;9459;50.254;19.014;2023-08-08T01:17:28;2.65;;;1.00;;
18659;SDS011;9459;50.254;19.014;2023-08-08T01:19:57;2.00;;;1.10;;
18659;SDS011;9459;50.254;19.014;2023-08-08T01:22:27;1.02;;;0.80;;
18659;SDS011;9459;50.254;19.014;2023-08-08T01:25:00;1.52;;;0.93;;
18659;SDS011;9459;50.254;19.014;2023-08-08T01:27:28;1.77;;;1.05;;
18659;SDS011;9459;50.254;19.014;2023-08-08T01:29:57;5.00;;;1.17;;
18659;SDS011;9459;50.254;19.014;2023-08-08T01:32:25;2.38;;;1.00;;
18659;SDS011;9459;50.254;19.014;2023-08-08T01:34:54;2.15;;;0.80;;
18659;SDS011;9459;50.254;19.014;2023-08-08T01:37:23;2.80;;;0.93;;
18659;SDS011;9459;50.254;19.014;2023-08-08T01:39:57;2.80;;;1.02;;
18659;SDS011;9459;50.254;19.014;2023-08-08T01:42:29;2.08;;;0.85;;
18659;SDS011;9459;50.254;19.014;2023-08-08T01:44:57;1.60;;;1.08;;
18659;SDS011;9459;50.254;19.014;2023-08-08T01:47:26;2.38;;;1.00;;
18659;SDS011;9459;50.254;19.014;2023-08-08T01:49:55;6.15;;;1.10;;
18659;SDS011;9459;50.254;19.014;2023-08-08T01:52:23;6.28;;;1.10;;
18659;SDS011;9459;50.254;19.014;2023-08-08T01:54:52;2.45;;;1.10;;
18659;SDS011;9459;50.254;19.014;2023-08-08T01:57:21;1.67;;;0.80;;
18659;SDS011;9459;50.254;19.014;2023-08-08T01:59:50;4.28;;;1.67;;
18659;SDS011;9459;50.254;19.014;2023-08-08T02:02:19;3.65;;;1.15;;
18659;SDS011;9459;50.254;19.014;2023-08-08T02:04:48;2.47;;;0.82;;
18659;SDS011;9459;50.254;19.014;2023-08-08T02:07:16;2.03;;;1.08;;
18659;SDS011;9459;50.254;19.014;2023-08-08T02:09:45;1.75;;;1.00;;
18659;SDS011;9459;50.254;19.014;2023-08-08T02:12:13;1.73;;;1.13;;
18659;SDS011;9459;50.254;19.014;2023-08-08T02:14:43;4.20;;;1.58;;
18659;SDS011;9459;50.254;19.014;2023-08-08T02:17:12;2.42;;;2.05;;
18659;SDS011;9459;50.254;19.014;2023-08-08T02:19:40;3.15;;;1.92;;
18659;SDS011;9459;50.254;19.014;2023-08-08T02:22:09;3.88;;;2.03;;
18659;SDS011;9459;50.254;19.014;2023-08-08T02:24:37;3.72;;;1.70;;
18659;SDS011;9459;50.254;19.014;2023-08-08T02:27:06;3.58;;;1.75;;
18659;SDS011;9459;50.254;19.014;2023-08-08T02:29:34;5.15;;;1.75;;
18659;SDS011;9459;50.254;19.014;2023-08-08T02:32:04;3.08;;;1.30;;
18659;SDS011;9459;50.254;19.014;2023-08-08T02:34:33;3.30;;;1.42;;
18659;SDS011;9459;50.254;19.014;2023-08-08T02:37:02;2.38;;;1.70;;
18659;SDS011;9459;50.254;19.014;2023-08-08T02:39:31;1.73;;;1.58;;
18659;SDS011;9459;50.254;19.014;2023-08-08T02:41:59;3.78;;;1.80;;
18659;SDS011;9459;50.254;19.014;2023-08-08T02:44:28;5.60;;;1.67;;
18659;SDS011;9459;50.254;19.014;2023-08-08T02:46:56;2.55;;;1.70;;
18659;SDS011;9459;50.254;19.014;2023-08-08T02:49:26;3.53;;;1.80;;
18659;SDS011;9459;50.254;19.014;2023-08-08T02:51:55;1.83;;;1.67;;
18659;SDS011;9459;50.254;19.014;2023-08-08T02:54:24;2.95;;;1.80;;
18659;SDS011;9459;50.254;19.014;2023-08-08T02:56:52;3.70;;;1.77;;
18659;SDS011;9459;50.254;19.014;2023-08-08T02:59:21;2.42;;;1.60;;
18659;SDS011;9459;50.254;19.014;2023-08-08T03:01:50;2.42;;;1.60;;
18659;SDS011;9459;50.254;19.014;2023-08-08T03:04:19;6.45;;;1.73;;
18659;SDS011;9459;50.254;19.014;2023-08-08T03:06:49;3.85;;;1.48;;
18659;SDS011;9459;50.254;19.014;2023-08-08T03:09:17;3.42;;;1.70;;
18659;SDS011;9459;50.254;19.014;2023-08-08T03:11:46;3.53;;;1.73;;
18659;SDS011;9459;50.254;19.014;2023-08-08T03:14:14;5.78;;;1.83;;
18659;SDS011;9459;50.254;19.014;2023-08-08T03:16:43;3.95;;;2.20;;
18659;SDS011;9459;50.254;19.014;2023-08-08T03:19:12;4.40;;;1.75;;
18659;SDS011;9459;50.254;19.014;2023-08-08T03:21:40;3.30;;;1.67;;
18659;SDS011;9459;50.254;19.014;2023-08-08T03:24:10;2.97;;;1.98;;
18659;SDS011;9459;50.254;19.014;2023-08-08T03:26:41;2.92;;;1.80;;
18659;SDS011;9459;50.254;19.014;2023-08-08T03:29:10;4.35;;;1.80;;
18659;SDS011;9459;50.254;19.014;2023-08-08T03:31:39;3.58;;;2.10;;
18659;SDS011;9459;50.254;19.014;2023-08-08T03:34:08;2.75;;;1.80;;
18659;SDS011;9459;50.254;19.014;2023-08-08T03:36:36;4.97;;;2.00;;
18659;SDS011;9459;50.254;19.014;2023-08-08T03:39:07;4.95;;;2.00;;
18659;SDS011;9459;50.254;19.014;2023-08-08T03:41:37;2.33;;;1.60;;
18659;SDS011;9459;50.254;19.014;2023-08-08T03:44:05;4.70;;;1.70;;
18659;SDS011;9459;50.254;19.014;2023-08-08T03:46:34;2.88;;;1.67;;
18659;SDS011;9459;50.254;19.014;2023-08-08T03:49:03;2.03;;;1.55;;
18659;SDS011;9459;50.254;19.014;2023-08-08T03:51:31;4.35;;;1.73;;
18659;SDS011;9459;50.254;19.014;2023-08-08T03:54:00;2.17;;;1.70;;
18659;SDS011;9459;50.254;19.014;2023-08-08T03:56:29;5.35;;;1.75;;
18659;SDS011;9459;50.254;19.014;2023-08-08T03:58:59;3.13;;;1.70;;
18659;SDS011;9459;50.254;19.014;2023-08-08T04:01:27;1.80;;;1.50;;
18659;SDS011;9459;50.254;19.014;2023-08-08T04:03:56;3.15;;;1.80;;
18659;SDS011;9459;50.254;19.014;2023-08-08T04:06:25;3.45;;;1.75;;
18659;SDS011;9459;50.254;19.014;2023-08-08T04:08:53;8.27;;;2.05;;
18659;SDS011;9459;50.254;19.014;2023-08-08T04:11:22;3.92;;;1.90;;
18659;SDS011;9459;50.254;19.014;2023-08-08T04:13:51;2.50;;;1.75;;
18659;SDS011;9459;50.254;19.014;2023-08-08T04:16:20;3.47;;;1.55;;
18659;SDS011;9459;50.254;19.014;2023-08-08T04:18:52;3.33;;;1.60;;
18659;SDS011;9459;50.254;19.014;2023-08-08T04:21:21;3.55;;;1.98;;
18659;SDS011;9459;50.254;19.014;2023-08-08T04:23:50;5.82;;;2.10;;
18659;SDS011;9459;50.254;19.014;2023-08-08T04:26:18;3.53;;;1.73;;
18659;SDS011;9459;50.254;19.014;2023-08-08T04:28:47;2.22;;;1.83;;
18659;SDS011;9459;50.254;19.014;2023-08-08T04:31:15;3.45;;;1.85;;
18659;SDS011;9459;50.254;19.014;2023-08-08T04:33:45;2.85;;;1.65;;
18659;SDS011;9459;50.254;19.014;2023-08-08T04:36:14;2.90;;;2.05;;
18659;SDS011;9459;50.254;19.014;2023-08-08T04:38:42;4.50;;;1.80;;
18659;SDS011;9459;50.254;19.014;2023-08-08T04:41:10;3.85;;;2.15;;
18659;SDS011;9459;50.254;19.014;2023-08-08T04:43:39;4.75;;;1.70;;
18659;SDS011;9459;50.254;19.014;2023-08-08T04:46:07;5.70;;;1.65;;
18659;SDS011;9459;50.254;19.014;2023-08-08T04:48:37;2.75;;;2.03;;
18659;SDS011;9459;50.254;19.014;2023-08-08T04:51:07;4.85;;;2.15;;
18659;SDS011;9459;50.254;19.014;2023-08-08T04:56:05;3.92;;;1.90;;
18659;SDS011;9459;50.254;19.014;2023-08-08T04:58:33;3.08;;;1.70;;
18659;SDS011;9459;50.254;19.014;2023-08-08T05:01:02;3.75;;;2.00;;
18659;SDS011;9459;50.254;19.014;2023-08-08T05:03:31;2.67;;;1.80;;
18659;SDS011;9459;50.254;19.014;2023-08-08T05:06:00;3.88;;;2.20;;
18659;SDS011;9459;50.254;19.014;2023-08-08T05:08:30;3.30;;;2.05;;
18659;SDS011;9459;50.254;19.014;2023-08-08T05:10:58;4.55;;;2.03;;
18659;SDS011;9459;50.254;19.014;2023-08-08T05:13:27;3.30;;;1.70;;
18659;SDS011;9459;50.254;19.014;2023-08-08T05:15:55;5.10;;;2.40;;
18659;SDS011;9459;50.254;19.014;2023-08-08T05:18:24;3.85;;;2.08;;
18659;SDS011;9459;50.254;19.014;2023-08-08T05:20:52;3.72;;;2.22;;
18659;SDS011;9459;50.254;19.014;2023-08-08T05:23:21;3.13;;;2.00;;
18659;SDS011;9459;50.254;19.014;2023-08-08T05:25:51;6.40;;;2.20;;
18659;SDS011;9459;50.254;19.014;2023-08-08T05:28:20;6.80;;;2.17;;
18659;SDS011;9459;50.254;19.014;2023-08-08T05:30:48;4.88;;;2.25;;
18659;SDS011;9459;50.254;19.014;2023-08-08T05:33:17;3.10;;;1.70;;
18659;SDS011;9459;50.254;19.014;2023-08-08T05:35:46;4.68;;;2.00;;
18659;SDS011;9459;50.254;19.014;2023-08-08T05:38:14;3.40;;;2.08;;
18659;SDS011;9459;50.254;19.014;2023-08-08T05:40:43;3.13;;;2.00;;
18659;SDS011;9459;50.254;19.014;2023-08-08T05:43:13;4.57;;;1.88;;
18659;SDS011;9459;50.254;19.014;2023-08-08T05:45:44;4.65;;;2.10;;
18659;SDS011;9459;50.254;19.014;2023-08-08T05:48:13;3.00;;;2.00;;
18659;SDS011;9459;50.254;19.014;2023-08-08T05:50:42;4.05;;;2.20;;
18659;SDS011;9459;50.254;19.014;2023-08-08T05:53:10;4.13;;;1.88;;
18659;SDS011;9459;50.254;19.014;2023-08-08T05:55:40;2.63;;;1.38;;
18659;SDS011;9459;50.254;19.014;2023-08-08T05:58:09;4.07;;;1.52;;
18659;SDS011;9459;50.254;19.014;2023-08-08T06:00:39;3.67;;;1.55;;
18659;SDS011;9459;50.254;19.014;2023-08-08T06:03:10;4.57;;;1.40;;
18659;SDS011;9459;50.254;19.014;2023-08-08T06:05:39;3.08;;;1.50;;
18659;SDS011;9459;50.254;19.014;2023-08-08T06:08:08;2.83;;;1.70;;
18659;SDS011;9459;50.254;19.014;2023-08-08T06:10:38;2.05;;;1.40;;
18659;SDS011;9459;50.254;19.014;2023-08-08T06:13:07;4.38;;;1.30;;
18659;SDS011;9459;50.254;19.014;2023-08-08T06:15:36;13.07;;;1.90;;
18659;SDS011;9459;50.254;19.014;2023-08-08T06:18:06;3.15;;;1.33;;
18659;SDS011;9459;50.254;19.014;2023-08-08T06:20:34;2.92;;;1.45;;
18659;SDS011;9459;50.254;19.014;2023-08-08T06:23:03;2.20;;;1.45;;
18659;SDS011;9459;50.254;19.014;2023-08-08T06:25:32;2.72;;;1.63;;
18659;SDS011;9459;50.254;19.014;2023-08-08T06:28:02;4.22;;;1.33;;
18659;SDS011;9459;50.254;19.014;2023-08-08T06:30:30;3.80;;;1.67;;
18659;SDS011;9459;50.254;19.014;2023-08-08T06:32:59;5.20;;;1.58;;
18659;SDS011;9459;50.254;19.014;2023-08-08T06:35:29;4.00;;;1.48;;
18659;SDS011;9459;50.254;19.014;2023-08-08T06:37:57;4.40;;;1.42;;
18659;SDS011;9459;50.254;19.014;2023-08-08T06:40:26;1.83;;;1.25;;
18659;SDS011;9459;50.254;19.014;2023-08-08T06:42:55;1.98;;;1.40;;
18659;SDS011;9459;50.254;19.014;2023-08-08T06:45:23;2.28;;;1.38;;
18659;SDS011;9459;50.254;19.014;2023-08-08T06:47:52;2.53;;;1.25;;
18659;SDS011;9459;50.254;19.014;2023-08-08T06:50:20;2.20;;;1.67;;
18659;SDS011;9459;50.254;19.014;2023-08-08T06:55:20;2.67;;;1.33;;
18659;SDS011;9459;50.254;19.014;2023-08-08T06:57:49;2.35;;;1.35;;
18659;SDS011;9459;50.254;19.014;2023-08-08T07:00:18;2.08;;;1.17;;
18659;SDS011;9459;50.254;19.014;2023-08-08T07:02:46;2.72;;;1.20;;
18659;SDS011;9459;50.254;19.014;2023-08-08T07:05:15;2.08;;;1.23;;
18659;SDS011;9459;50.254;19.014;2023-08-08T07:07:44;3.63;;;1.33;;
18659;SDS011;9459;50.254;19.014;2023-08-08T07:10:14;2.00;;;1.10;;
18659;SDS011;9459;50.254;19.014;2023-08-08T07:12:43;3.20;;;1.30;;
18659;SDS011;9459;50.254;19.014;2023-08-08T07:15:12;1.55;;;1.17;;
18659;SDS011;9459;50.254;19.014;2023-08-08T07:17:41;3.38;;;1.20;;
18659;SDS011;9459;50.254;19.014;2023-08-08T07:20:09;2.85;;;1.42;;
18659;SDS011;9459;50.254;19.014;2023-08-08T07:22:41;4.07;;;1.40;;
18659;SDS011;9459;50.254;19.014;2023-08-08T07:25:09;3.38;;;1.50;;
18659;SDS011;9459;50.254;19.014;2023-08-08T07:27:39;5.10;;;1.30;;
18659;SDS011;9459;50.254;19.014;2023-08-08T07:30:08;4.20;;;1.33;;
18659;SDS011;9459;50.254;19.014;2023-08-08T07:32:38;3.20;;;1.30;;
18659;SDS011;9459;50.254;19.014;2023-08-08T07:35:07;2.03;;;1.40;;
18659;SDS011;9459;50.254;19.014;2023-08-08T07:37:36;4.60;;;1.50;;
18659;SDS011;9459;50.254;19.014;2023-08-08T07:40:13;1.95;;;1.27;;
18659;SDS011;9459;50.254;19.014;2023-08-08T07:42:43;2.30;;;1.33;;
18659;SDS011;9459;50.254;19.014;2023-08-08T07:45:11;2.17;;;1.30;;
18659;SDS011;9459;50.254;19.014;2023-08-08T07:47:40;4.15;;;1.40;;
18659;SDS011;9459;50.254;19.014;2023-08-08T07:50:09;1.98;;;1.17;;
18659;SDS011;9459;50.254;19.014;2023-08-08T07:52:38;3.25;;;1.33;;
18659;SDS011;9459;50.254;19.014;2023-08-08T07:55:06;3.50;;;1.35;;
18659;SDS011;9459;50.254;19.014;2023-08-08T07:57:35;3.63;;;1.58;;
18659;SDS011;9459;50.254;19.014;2023-08-08T08:00:06;3.05;;;1.42;;
18659;SDS011;9459;50.254;19.014;2023-08-08T08:02:39;4.68;;;1.38;;
18659;SDS011;9459;50.254;19.014;2023-08-08T08:05:09;3.05;;;1.13;;
18659;SDS011;9459;50.254;19.014;2023-08-08T08:07:38;2.55;;;1.20;;
18659;SDS011;9459;50.254;19.014;2023-08-08T08:10:07;1.95;;;1.20;;
18659;SDS011;9459;50.254;19.014;2023-08-08T08:15:07;2.17;;;1.20;;
18659;SDS011;9459;50.254;19.014;2023-08-08T08:17:37;2.75;;;1.30;;
18659;SDS011;9459;50.254;19.014;2023-08-08T08:20:06;1.45;;;1.02;;
18659;SDS011;9459;50.254;19.014;2023-08-08T08:22:37;1.83;;;1.10;;
18659;SDS011;9459;50.254;19.014;2023-08-08T08:25:06;2.47;;;1.33;;
18659;SDS011;9459;50.254;19.014;2023-08-08T08:27:36;2.28;;;1.30;;
18659;SDS011;9459;50.254;19.014;2023-08-08T08:30:05;1.92;;;1.30;;
18659;SDS011;9459;50.254;19.014;2023-08-08T08:32:37;3.05;;;1.20;;
18659;SDS011;9459;50.254;19.014;2023-08-08T08:35:07;2.15;;;1.20;;
18659;SDS011;9459;50.254;19.014;2023-08-08T08:37:39;3.65;;;1.40;;
18659;SDS011;9459;50.254;19.014;2023-08-08T08:40:08;2.80;;;1.10;;
18659;SDS011;9459;50.254;19.014;2023-08-08T08:42:37;2.28;;;1.42;;
18659;SDS011;9459;50.254;19.014;2023-08-08T08:45:08;1.90;;;1.10;;
18659;SDS011;9459;50.254;19.014;2023-08-08T08:47:37;1.52;;;1.13;;
18659;SDS011;9459;50.254;19.014;2023-08-08T08:50:09;6.25;;;1.80;;
18659;SDS011;9459;50.254;19.014;2023-08-08T08:52:38;4.93;;;1.52;;
18659;SDS011;9459;50.254;19.014;2023-08-08T08:55:07;3.13;;;1.65;;
18659;SDS011;9459;50.254;19.014;2023-08-08T08:57:36;3.83;;;1.60;;
18659;SDS011;9459;50.254;19.014;2023-08-08T09:00:05;2.83;;;1.60;;
18659;SDS011;9459;50.254;19.014;2023-08-08T09:02:38;3.38;;;1.35;;
18659;SDS011;9459;50.254;19.014;2023-08-08T09:05:07;2.65;;;1.63;;
18659;SDS011;9459;50.254;19.014;2023-08-08T09:07:36;4.32;;;1.70;;
18659;SDS011;9459;50.254;19.014;2023-08-08T09:10:05;4.07;;;1.60;;
18659;SDS011;9459;50.254;19.014;2023-08-08T09:12:34;5.53;;;1.88;;
18659;SDS011;9459;50.254;19.014;2023-08-08T09:15:04;5.30;;;2.10;;
18659;SDS011;9459;50.254;19.014;2023-08-08T09:17:35;3.55;;;1.90;;
18659;SDS011;9459;50.254;19.014;2023-08-08T09:20:15;4.93;;;1.75;;
18659;SDS011;9459;50.254;19.014;2023-08-08T09:22:45;3.85;;;1.88;;
18659;SDS011;9459;50.254;19.014;2023-08-08T09:25:13;3.92;;;1.98;;
18659;SDS011;9459;50.254;19.014;2023-08-08T09:27:42;6.70;;;1.52;;
18659;SDS011;9459;50.254;19.014;2023-08-08T09:30:11;3.47;;;1.48;;
18659;SDS011;9459;50.254;19.014;2023-08-08T09:32:42;3.05;;;1.73;;
18659;SDS011;9459;50.254;19.014;2023-08-08T09:35:11;4.57;;;1.75;;
18659;SDS011;9459;50.254;19.014;2023-08-08T09:37:40;3.03;;;1.75;;
18659;SDS011;9459;50.254;19.014;2023-08-08T09:40:09;7.75;;;2.97;;
18659;SDS011;9459;50.254;19.014;2023-08-08T09:42:39;3.30;;;1.73;;
18659;SDS011;9459;50.254;19.014;2023-08-08T09:45:08;2.50;;;1.40;;
18659;SDS011;9459;50.254;19.014;2023-08-08T09:47:38;3.28;;;2.08;;
18659;SDS011;9459;50.254;19.014;2023-08-08T09:50:08;4.63;;;1.50;;
18659;SDS011;9459;50.254;19.014;2023-08-08T09:52:37;2.47;;;1.83;;
18659;SDS011;9459;50.254;19.014;2023-08-08T09:55:07;6.75;;;2.30;;
18659;SDS011;9459;50.254;19.014;2023-08-08T09:57:36;3.85;;;1.77;;
18659;SDS011;9459;50.254;19.014;2023-08-08T10:02:43;3.97;;;2.15;;
18659;SDS011;9459;50.254;19.014;2023-08-08T10:05:14;5.95;;;2.80;;
18659;SDS011;9459;50.254;19.014;2023-08-08T10:07:44;2.75;;;1.67;;
18659;SDS011;9459;50.254;19.014;2023-08-08T10:10:13;3.55;;;2.17;;
18659;SDS011;9459;50.254;19.014;2023-08-08T10:12:42;3.20;;;1.75;;
18659;SDS011;9459;50.254;19.014;2023-08-08T10:15:11;2.38;;;1.70;;
18659;SDS011;9459;50.254;19.014;2023-08-08T10:17:41;2.83;;;1.80;;
18659;SDS011;9459;50.254;19.014;2023-08-08T10:20:10;4.50;;;2.08;;
18659;SDS011;9459;50.254;19.014;2023-08-08T10:22:43;5.30;;;2.47;;
18659;SDS011;9459;50.254;19.014;2023-08-08T10:25:23;5.00;;;1.60;;
18659;SDS011;9459;50.254;19.014;2023-08-08T10:28:03;2.78;;;1.80;;
18659;SDS011;9459;50.254;19.014;2023-08-08T10:30:52;3.15;;;1.88;;
18659;SDS011;9459;50.254;19.014;2023-08-08T10:33:22;2.88;;;1.60;;
18659;SDS011;9459;50.254;19.014;2023-08-08T10:35:58;6.83;;;2.60;;
18659;SDS011;9459;50.254;19.014;2023-08-08T10:38:40;10.57;;;1.98;;
18659;SDS011;9459;50.254;19.014;2023-08-08T10:41:10;2.75;;;2.00;;
18659;SDS011;9459;50.254;19.014;2023-08-08T10:43:46;3.85;;;1.70;;
18659;SDS011;9459;50.254;19.014;2023-08-08T10:46:22;3.03;;;1.88;;
18659;SDS011;9459;50.254;19.014;2023-08-08T10:48:51;3.15;;;1.50;;
18659;SDS011;9459;50.254;19.014;2023-08-08T10:51:20;3.25;;;1.35;;
18659;SDS011;9459;50.254;19.014;2023-08-08T10:53:52;1.52;;;1.00;;
18659;SDS011;9459;50.254;19.014;2023-08-08T10:56:20;2.47;;;1.38;;
18659;SDS011;9459;50.254;19.014;2023-08-08T10:58:51;5.85;;;1.38;;
18659;SDS011;9459;50.254;19.014;2023-08-08T11:01:19;4.85;;;1.33;;
18659;SDS011;9459;50.254;19.014;2023-08-08T11:03:53;2.95;;;1.33;;
18659;SDS011;9459;50.254;19.014;2023-08-08T11:06:22;2.30;;;1.10;;
18659;SDS011;9459;50.254;19.014;2023-08-08T11:08:53;4.22;;;1.48;;
18659;SDS011;9459;50.254;19.014;2023-08-08T11:11:22;3.30;;;1.27;;
18659;SDS011;9459;50.254;19.014;2023-08-08T11:13:51;2.00;;;1.13;;
18659;SDS011;9459;50.254;19.014;2023-08-08T11:16:19;3.80;;;1.60;;
18659;SDS011;9459;50.254;19.014;2023-08-08T11:18:48;3.55;;;1.27;;
18659;SDS011;9459;50.254;19.014;2023-08-08T11:21:17;1.85;;;1.10;;
18659;SDS011;9459;50.254;19.014;2023-08-08T11:23:46;1.50;;;1.30;;
18659;SDS011;9459;50.254;19.014;2023-08-08T11:26:18;1.40;;;1.15;;
18659;SDS011;9459;50.254;19.014;2023-08-08T11:28:50;2.58;;;1.10;;
18659;SDS011;9459;50.254;19.014;2023-08-08T11:31:19;11.85;;;2.28;;
18659;SDS011;9459;50.254;19.014;2023-08-08T11:33:49;5.10;;;1.40;;
18659;SDS011;9459;50.254;19.014;2023-08-08T11:36:18;2.97;;;1.40;;
18659;SDS011;9459;50.254;19.014;2023-08-08T11:38:47;8.88;;;1.80;;
18659;SDS011;9459;50.254;19.014;2023-08-08T11:41:19;6.25;;;2.17;;
18659;SDS011;9459;50.254;19.014;2023-08-08T11:43:50;3.88;;;1.00;;
18659;SDS011;9459;50.254;19.014;2023-08-08T11:46:22;2.08;;;1.50;;
18659;SDS011;9459;50.254;19.014;2023-08-08T11:48:52;1.67;;;1.20;;
18659;SDS011;9459;50.254;19.014;2023-08-08T11:51:21;2.58;;;0.90;;
18659;SDS011;9459;50.254;19.014;2023-08-08T11:53:50;2.63;;;1.13;;
18659;SDS011;9459;50.254;19.014;2023-08-08T11:56:21;6.88;;;1.75;;
18659;SDS011;9459;50.254;19.014;2023-08-08T11:58:50;3.20;;;1.50;;
18659;SDS011;9459;50.254;19.014;2023-08-08T12:01:19;2.38;;;1.08;;
18659;SDS011;9459;50.254;19.014;2023-08-08T12:03:51;3.13;;;1.50;;
18659;SDS011;9459;50.254;19.014;2023-08-08T12:06:21;4.30;;;1.30;;
18659;SDS011;9459;50.254;19.014;2023-08-08T12:08:50;6.82;;;1.50;;
18659;SDS011;9459;50.254;19.014;2023-08-08T12:11:18;3.88;;;1.50;;
18659;SDS011;9459;50.254;19.014;2023-08-08T12:13:57;2.67;;;1.20;;
18659;SDS011;9459;50.254;19.014;2023-08-08T12:16:27;4.53;;;1.20;;
18659;SDS011;9459;50.254;19.014;2023-08-08T12:21:28;5.63;;;1.30;;
18659;SDS011;9459;50.254;19.014;2023-08-08T12:23:58;4.55;;;1.30;;
18659;SDS011;9459;50.254;19.014;2023-08-08T12:26:27;5.28;;;1.50;;
18659;SDS011;9459;50.254;19.014;2023-08-08T12:28:56;8.18;;;1.50;;
18659;SDS011;9459;50.254;19.014;2023-08-08T12:31:24;4.68;;;1.42;;
18659;SDS011;9459;50.254;19.014;2023-08-08T12:33:53;2.42;;;1.35;;
18659;SDS011;9459;50.254;19.014;2023-08-08T12:36:22;2.53;;;1.20;;
18659;SDS011;9459;50.254;19.014;2023-08-08T12:38:50;6.38;;;1.67;;
18659;SDS011;9459;50.254;19.014;2023-08-08T12:41:19;2.65;;;1.10;;
18659;SDS011;9459;50.254;19.014;2023-08-08T12:43:49;2.83;;;1.10;;
18659;SDS011;9459;50.254;19.014;2023-08-08T12:46:17;4.07;;;1.38;;
18659;SDS011;9459;50.254;19.014;2023-08-08T12:48:47;2.85;;;1.20;;
18659;SDS011;9459;50.254;19.014;2023-08-08T12:51:15;2.38;;;1.10;;
18659;SDS011;9459;50.254;19.014;2023-08-08T12:53:44;1.23;;;0.88;;
18659;SDS011;9459;50.254;19.014;2023-08-08T12:56:12;2.35;;;1.20;;
18659;SDS011;9459;50.254;19.014;2023-08-08T12:58:41;2.40;;;1.00;;
18659;SDS011;9459;50.254;19.014;2023-08-08T13:01:11;1.70;;;1.20;;
18659;SDS011;9459;50.254;19.014;2023-08-08T13:03:40;2.50;;;1.00;;
18659;SDS011;9459;50.254;19.014;2023-08-08T13:06:16;1.75;;;1.10;;
18659;SDS011;9459;50.254;19.014;2023-08-08T13:08:45;2.45;;;1.00;;
18659;SDS011;9459;50.254;19.014;2023-08-08T13:11:13;1.85;;;1.00;;
18659;SDS011;9459;50.254;19.014;2023-08-08T13:13:42;3.05;;;1.30;;
18659;SDS011;9459;50.254;19.014;2023-08-08T13:16:12;3.72;;;1.10;;
18659;SDS011;9459;50.254;19.014;2023-08-08T13:18:40;2.83;;;1.40;;
18659;SDS011;9459;50.254;19.014;2023-08-08T13:21:09;2.67;;;1.27;;
18659;SDS011;9459;50.254;19.014;2023-08-08T13:23:40;11.65;;;1.80;;
18659;SDS011;9459;50.254;19.014;2023-08-08T13:26:08;3.28;;;1.17;;
18659;SDS011;9459;50.254;19.014;2023-08-08T13:28:37;8.20;;;2.05;;
18659;SDS011;9459;50.254;19.014;2023-08-08T13:31:06;2.65;;;1.23;;
18659;SDS011;9459;50.254;19.014;2023-08-08T13:33:36;1.75;;;0.98;;
18659;SDS011;9459;50.254;19.014;2023-08-08T13:36:05;1.80;;;1.20;;
18659;SDS011;9459;50.254;19.014;2023-08-08T13:38:34;2.30;;;1.02;;
18659;SDS011;9459;50.254;19.014;2023-08-08T13:41:02;2.53;;;1.05;;
18659;SDS011;9459;50.254;19.014;2023-08-08T13:43:31;4.05;;;1.63;;
18659;SDS011;9459;50.254;19.014;2023-08-08T13:45:59;6.28;;;1.90;;
18659;SDS011;9459;50.254;19.014;2023-08-08T13:48:30;4.88;;;1.60;;
18659;SDS011;9459;50.254;19.014;2023-08-08T13:51:00;3.53;;;1.58;;
18659;SDS011;9459;50.254;19.014;2023-08-08T13:53:29;6.43;;;1.80;;
18659;SDS011;9459;50.254;19.014;2023-08-08T13:55:58;7.90;;;2.33;;
18659;SDS011;9459;50.254;19.014;2023-08-08T13:58:26;6.03;;;1.52;;
18659;SDS011;9459;50.254;19.014;2023-08-08T14:00:55;6.43;;;2.05;;
18659;SDS011;9459;50.254;19.014;2023-08-08T14:03:24;4.85;;;1.65;;
18659;SDS011;9459;50.254;19.014;2023-08-08T14:05:52;5.88;;;1.42;;
18659;SDS011;9459;50.254;19.014;2023-08-08T14:08:23;4.55;;;1.45;;
18659;SDS011;9459;50.254;19.014;2023-08-08T14:10:51;8.85;;;2.03;;
18659;SDS011;9459;50.254;19.014;2023-08-08T14:13:20;6.78;;;1.98;;
18659;SDS011;9459;50.254;19.014;2023-08-08T14:15:49;5.68;;;2.13;;
18659;SDS011;9459;50.254;19.014;2023-08-08T14:18:19;4.00;;;1.90;;
18659;SDS011;9459;50.254;19.014;2023-08-08T14:20:47;3.40;;;1.25;;
18659;SDS011;9459;50.254;19.014;2023-08-08T14:23:16;4.35;;;1.75;;
18659;SDS011;9459;50.254;19.014;2023-08-08T14:25:46;4.25;;;1.50;;
18659;SDS011;9459;50.254;19.014;2023-08-08T14:28:14;2.75;;;1.10;;
18659;SDS011;9459;50.254;19.014;2023-08-08T14:30:43;1.25;;;1.02;;
18659;SDS011;9459;50.254;19.014;2023-08-08T14:33:12;3.20;;;1.25;;
18659;SDS011;9459;50.254;19.014;2023-08-08T14:35:41;1.40;;;1.10;;
18659;SDS011;9459;50.254;19.014;2023-08-08T14:38:10;1.40;;;1.00;;
18659;SDS011;9459;50.254;19.014;2023-08-08T14:40:38;3.08;;;1.10;;
18659;SDS011;9459;50.254;19.014;2023-08-08T14:43:09;1.92;;;1.17;;
18659;SDS011;9459;50.254;19.014;2023-08-08T14:45:38;2.78;;;1.13;;
18659;SDS011;9459;50.254;19.014;2023-08-08T14:48:08;2.22;;;1.30;;
18659;SDS011;9459;50.254;19.014;2023-08-08T14:50:36;1.92;;;1.27;;
18659;SDS011;9459;50.254;19.014;2023-08-08T14:53:06;5.32;;;2.15;;
18659;SDS011;9459;50.254;19.014;2023-08-08T14:55:34;2.03;;;1.27;;
18659;SDS011;9459;50.254;19.014;2023-08-08T14:58:03;2.45;;;1.20;;
18659;SDS011;9459;50.254;19.014;2023-08-08T15:00:33;1.40;;;1.10;;
18659;SDS011;9459;50.254;19.014;2023-08-08T15:03:02;2.38;;;1.38;;
18659;SDS011;9459;50.254;19.014;2023-08-08T15:05:31;1.95;;;1.40;;
18659;SDS011;9459;50.254;19.014;2023-08-08T15:08:00;2.08;;;1.40;;
18659;SDS011;9459;50.254;19.014;2023-08-08T15:10:28;2.00;;;1.60;;
18659;SDS011;9459;50.254;19.014;2023-08-08T15:12:59;2.70;;;1.25;;